sensor_id;sensor_type;location;lat;lon;timestamp;pressure;altitude;pressure_sealevel;temperature;humidity
25944;BME280;13742;49.306;8.636;2023-07-31T00:00:51;100454.97;;;19.83;62.50
25944;BME280;13742;49.306;8.636;2023-07-31T00:01:51;100453.02;;;19.82;62.79
25944;BME280;13742;49.306;8.636;2023-07-31T00:02:51;100450.74;;;19.82;62.65
25944;BME280;13742;49.306;8.636;2023-07-31T00:03:51;100448.52;;;19.81;63.03
25944;BME280;13742;49.306;8.636;2023-07-31T00:04:51;100448.25;;;19.80;62.88
25944;BME280;13742;49.306;8.636;2023-07-31T00:05:51;100446.91;;;19.80;63.11
25944;BME280;13742;49.306;8.636;2023-07-31T00:06:51;100450.22;;;19.79;62.92
25944;BME280;13742;49.306;8.636;2023-07-31T00:07:51;100450.23;;;19.78;62.91
25944;BME280;13742;49.306;8.636;2023-07-31T00:08:51;100449.94;;;19.74;63.01
25944;BME280;13742;49.306;8.636;2023-07-31T00:09:51;100448.98;;;19.70;62.96
25944;BME280;13742;49.306;8.636;2023-07-31T00:10:51;100453.64;;;19.69;63.00
25944;BME280;13742;49.306;8.636;2023-07-31T00:11:51;100455.29;;;19.67;63.23
25944;BME280;13742;49.306;8.636;2023-07-31T00:12:51;100455.47;;;19.65;63.02
25944;BME280;13742;49.306;8.636;2023-07-31T00:13:52;100451.82;;;19.62;63.25
25944;BME280;13742;49.306;8.636;2023-07-31T00:14:51;100453.11;;;19.61;63.04
25944;BME280;13742;49.306;8.636;2023-07-31T00:15:50;100454.20;;;19.59;62.93
25944;BME280;13742;49.306;8.636;2023-07-31T00:16:51;100454.77;;;19.58;63.32
25944;BME280;13742;49.306;8.636;2023-07-31T00:17:51;100459.41;;;19.57;63.16
25944;BME280;13742;49.306;8.636;2023-07-31T00:18:51;100457.17;;;19.58;63.01
25944;BME280;13742;49.306;8.636;2023-07-31T00:19:51;100454.98;;;19.58;63.18
25944;BME280;13742;49.306;8.636;2023-07-31T00:20:51;100453.95;;;19.57;63.23
25944;BME280;13742;49.306;8.636;2023-07-31T00:21:50;100452.79;;;19.55;63.19
25944;BME280;13742;49.306;8.636;2023-07-31T00:22:51;100448.66;;;19.55;63.07
25944;BME280;13742;49.306;8.636;2023-07-31T00:23:51;100445.98;;;19.55;62.95
25944;BME280;13742;49.306;8.636;2023-07-31T00:24:51;100444.81;;;19.55;63.06
25944;BME280;13742;49.306;8.636;2023-07-31T00:25:51;100447.80;;;19.56;63.23
25944;BME280;13742;49.306;8.636;2023-07-31T00:26:51;100445.25;;;19.55;62.82
25944;BME280;13742;49.306;8.636;2023-07-31T00:27:50;100441.40;;;19.55;62.94
25944;BME280;13742;49.306;8.636;2023-07-31T00:28:50;100437.92;;;19.56;63.15
25944;BME280;13742;49.306;8.636;2023-07-31T00:29:51;100441.88;;;19.57;62.99
25944;BME280;13742;49.306;8.636;2023-07-31T00:30:51;100436.02;;;19.57;62.92
25944;BME280;13742;49.306;8.636;2023-07-31T00:31:51;100434.07;;;19.56;62.84
25944;BME280;13742;49.306;8.636;2023-07-31T00:32:51;100431.78;;;19.56;62.78
25944;BME280;13742;49.306;8.636;2023-07-31T00:33:51;100430.62;;;19.56;62.97
25944;BME280;13742;49.306;8.636;2023-07-31T00:34:51;100431.95;;;19.56;63.01
25944;BME280;13742;49.306;8.636;2023-07-31T00:35:51;100432.29;;;19.56;63.07
25944;BME280;13742;49.306;8.636;2023-07-31T00:36:51;100438.66;;;19.56;62.84
25944;BME280;13742;49.306;8.636;2023-07-31T00:37:50;100434.57;;;19.56;63.06
25944;BME280;13742;49.306;8.636;2023-07-31T00:38:50;100435.98;;;19.56;62.97
25944;BME280;13742;49.306;8.636;2023-07-31T00:39:51;100432.46;;;19.56;63.23
25944;BME280;13742;49.306;8.636;2023-07-31T00:40:50;100434.75;;;19.56;63.25
25944;BME280;13742;49.306;8.636;2023-07-31T00:41:51;100434.13;;;19.56;63.12
25944;BME280;13742;49.306;8.636;2023-07-31T00:42:51;100434.59;;;19.55;62.95
25944;BME280;13742;49.306;8.636;2023-07-31T00:43:51;100436.77;;;19.55;62.94
25944;BME280;13742;49.306;8.636;2023-07-31T00:44:51;100437.52;;;19.53;63.03
25944;BME280;13742;49.306;8.636;2023-07-31T00:45:50;100433.73;;;19.52;62.92
25944;BME280;13742;49.306;8.636;2023-07-31T00:46:50;100435.69;;;19.47;63.18
25944;BME280;13742;49.306;8.636;2023-07-31T00:47:50;100434.09;;;19.49;63.29
25944;BME280;13742;49.306;8.636;2023-07-31T00:48:51;100434.55;;;19.44;62.88
25944;BME280;13742;49.306;8.636;2023-07-31T00:49:51;100432.29;;;19.46;62.82
25944;BME280;13742;49.306;8.636;2023-07-31T00:50:50;100428.44;;;19.46;62.99
25944;BME280;13742;49.306;8.636;2023-07-31T00:51:50;100431.63;;;19.46;63.07
25944;BME280;13742;49.306;8.636;2023-07-31T00:52:50;100430.28;;;19.40;62.54
25944;BME280;13742;49.306;8.636;2023-07-31T00:53:50;100429.38;;;19.40;62.71
25944;BME280;13742;49.306;8.636;2023-07-31T00:54:51;100430.33;;;19.41;62.70
25944;BME280;13742;49.306;8.636;2023-07-31T00:55:51;100431.29;;;19.40;62.58
25944;BME280;13742;49.306;8.636;2023-07-31T00:56:50;100430.33;;;19.42;62.64
25944;BME280;13742;49.306;8.636;2023-07-31T00:57:52;100431.78;;;19.42;62.59
25944;BME280;13742;49.306;8.636;2023-07-31T00:58:50;100430.94;;;19.42;62.56
25944;BME280;13742;49.306;8.636;2023-07-31T00:59:51;100426.72;;;19.39;62.49
25944;BME280;13742;49.306;8.636;2023-07-31T01:00:51;100430.91;;;19.40;62.54
25944;BME280;13742;49.306;8.636;2023-07-31T01:01:50;100422.77;;;19.39;62.37
25944;BME280;13742;49.306;8.636;2023-07-31T01:02:51;100423.56;;;19.38;62.41
25944;BME280;13742;49.306;8.636;2023-07-31T01:03:53;100424.31;;;19.36;62.36
25944;BME280;13742;49.306;8.636;2023-07-31T01:04:50;100418.78;;;19.35;62.67
25944;BME280;13742;49.306;8.636;2023-07-31T01:07:52;100418.45;;;19.35;62.59
25944;BME280;13742;49.306;8.636;2023-07-31T01:10:52;100414.75;;;19.37;62.63
25944;BME280;13742;49.306;8.636;2023-07-31T01:11:52;100415.81;;;19.36;62.69
25944;BME280;13742;49.306;8.636;2023-07-31T01:12:51;100416.48;;;19.36;62.66
25944;BME280;13742;49.306;8.636;2023-07-31T01:13:50;100415.34;;;19.34;62.34
25944;BME280;13742;49.306;8.636;2023-07-31T01:14:51;100411.88;;;19.35;62.37
25944;BME280;13742;49.306;8.636;2023-07-31T01:15:51;100409.98;;;19.34;62.65
25944;BME280;13742;49.306;8.636;2023-07-31T01:16:51;100408.25;;;19.34;62.48
25944;BME280;13742;49.306;8.636;2023-07-31T01:17:50;100411.48;;;19.35;62.58
25944;BME280;13742;49.306;8.636;2023-07-31T01:18:50;100412.69;;;19.36;62.92
25944;BME280;13742;49.306;8.636;2023-07-31T01:19:50;100415.41;;;19.33;62.53
25944;BME280;13742;49.306;8.636;2023-07-31T01:20:54;100414.90;;;19.33;62.37
25944;BME280;13742;49.306;8.636;2023-07-31T01:22:56;100413.47;;;19.31;62.53
25944;BME280;13742;49.306;8.636;2023-07-31T01:27:53;100408.00;;;19.36;62.57
25944;BME280;13742;49.306;8.636;2023-07-31T01:30:50;100406.03;;;19.37;62.40
25944;BME280;13742;49.306;8.636;2023-07-31T01:31:50;100402.44;;;19.36;62.37
25944;BME280;13742;49.306;8.636;2023-07-31T01:32:51;100402.60;;;19.35;62.31
25944;BME280;13742;49.306;8.636;2023-07-31T01:33:52;100401.27;;;19.36;62.17
25944;BME280;13742;49.306;8.636;2023-07-31T01:34:50;100404.69;;;19.33;62.16
25944;BME280;13742;49.306;8.636;2023-07-31T01:35:51;100406.87;;;19.33;62.10
25944;BME280;13742;49.306;8.636;2023-07-31T01:36:50;100403.66;;;19.31;62.15
25944;BME280;13742;49.306;8.636;2023-07-31T01:37:52;100401.94;;;19.29;62.02
25944;BME280;13742;49.306;8.636;2023-07-31T01:38:50;100398.23;;;19.31;62.15
25944;BME280;13742;49.306;8.636;2023-07-31T01:39:51;100393.25;;;19.32;62.40
25944;BME280;13742;49.306;8.636;2023-07-31T01:40:51;100395.55;;;19.33;62.25
25944;BME280;13742;49.306;8.636;2023-07-31T01:41:51;100388.61;;;19.33;62.46
25944;BME280;13742;49.306;8.636;2023-07-31T01:42:50;100390.16;;;19.34;62.29
25944;BME280;13742;49.306;8.636;2023-07-31T01:43:50;100388.48;;;19.34;61.96
25944;BME280;13742;49.306;8.636;2023-07-31T01:44:50;100384.30;;;19.34;61.91
25944;BME280;13742;49.306;8.636;2023-07-31T01:45:50;100382.42;;;19.33;61.88
25944;BME280;13742;49.306;8.636;2023-07-31T01:46:50;100389.05;;;19.34;62.16
25944;BME280;13742;49.306;8.636;2023-07-31T01:47:50;100385.14;;;19.34;62.12
25944;BME280;13742;49.306;8.636;2023-07-31T01:48:51;100385.12;;;19.32;61.84
25944;BME280;13742;49.306;8.636;2023-07-31T01:49:50;100383.86;;;19.30;61.96
25944;BME280;13742;49.306;8.636;2023-07-31T01:50:50;100383.94;;;19.31;61.93
25944;BME280;13742;49.306;8.636;2023-07-31T01:51:50;100376.76;;;19.30;62.00
25944;BME280;13742;49.306;8.636;2023-07-31T01:52:51;100375.53;;;19.31;62.29
25944;BME280;13742;49.306;8.636;2023-07-31T01:53:51;100377.08;;;19.31;62.27
25944;BME280;13742;49.306;8.636;2023-07-31T01:54:50;100375.05;;;19.33;62.37
25944;BME280;13742;49.306;8.636;2023-07-31T01:55:50;100377.06;;;19.33;62.34
25944;BME280;13742;49.306;8.636;2023-07-31T01:56:50;100379.76;;;19.32;62.11
25944;BME280;13742;49.306;8.636;2023-07-31T01:57:51;100374.36;;;19.31;62.33
25944;BME280;13742;49.306;8.636;2023-07-31T01:58:50;100376.17;;;19.32;62.28
25944;BME280;13742;49.306;8.636;2023-07-31T01:59:53;100379.13;;;19.33;62.35
25944;BME280;13742;49.306;8.636;2023-07-31T02:00:50;100376.30;;;19.31;62.27
25944;BME280;13742;49.306;8.636;2023-07-31T02:01:51;100381.53;;;19.28;62.15
25944;BME280;13742;49.306;8.636;2023-07-31T02:02:50;100377.83;;;19.29;62.27
25944;BME280;13742;49.306;8.636;2023-07-31T02:03:51;100377.28;;;19.28;62.19
25944;BME280;13742;49.306;8.636;2023-07-31T02:04:50;100377.99;;;19.29;62.24
25944;BME280;13742;49.306;8.636;2023-07-31T02:05:51;100378.56;;;19.29;62.28
25944;BME280;13742;49.306;8.636;2023-07-31T02:06:50;100378.47;;;19.31;62.64
25944;BME280;13742;49.306;8.636;2023-07-31T02:07:51;100379.97;;;19.32;62.91
25944;BME280;13742;49.306;8.636;2023-07-31T02:08:51;100378.30;;;19.33;63.07
25944;BME280;13742;49.306;8.636;2023-07-31T02:09:50;100377.16;;;19.33;62.83
25944;BME280;13742;49.306;8.636;2023-07-31T02:10:51;100377.23;;;19.33;63.02
25944;BME280;13742;49.306;8.636;2023-07-31T02:11:50;100373.98;;;19.33;63.30
25944;BME280;13742;49.306;8.636;2023-07-31T02:12:50;100377.10;;;19.34;63.02
25944;BME280;13742;49.306;8.636;2023-07-31T02:13:51;100378.98;;;19.35;63.22
25944;BME280;13742;49.306;8.636;2023-07-31T02:14:50;100370.47;;;19.34;63.27
25944;BME280;13742;49.306;8.636;2023-07-31T02:15:51;100366.78;;;19.34;63.08
25944;BME280;13742;49.306;8.636;2023-07-31T02:16:50;100367.55;;;19.30;62.83
25944;BME280;13742;49.306;8.636;2023-07-31T02:17:50;100364.11;;;19.28;62.81
25944;BME280;13742;49.306;8.636;2023-07-31T02:18:50;100365.95;;;19.28;63.14
25944;BME280;13742;49.306;8.636;2023-07-31T02:19:50;100363.72;;;19.28;62.91
25944;BME280;13742;49.306;8.636;2023-07-31T02:20:51;100362.44;;;19.28;63.28
25944;BME280;13742;49.306;8.636;2023-07-31T02:21:50;100360.22;;;19.27;63.15
25944;BME280;13742;49.306;8.636;2023-07-31T02:22:50;100361.94;;;19.28;63.40
25944;BME280;13742;49.306;8.636;2023-07-31T02:23:50;100359.99;;;19.28;63.23
25944;BME280;13742;49.306;8.636;2023-07-31T02:24:50;100361.58;;;19.25;63.33
25944;BME280;13742;49.306;8.636;2023-07-31T02:25:50;100357.52;;;19.24;63.37
25944;BME280;13742;49.306;8.636;2023-07-31T02:26:50;100357.95;;;19.25;63.44
25944;BME280;13742;49.306;8.636;2023-07-31T02:27:50;100361.91;;;19.21;63.84
25944;BME280;13742;49.306;8.636;2023-07-31T02:28:50;100358.68;;;19.20;63.73
25944;BME280;13742;49.306;8.636;2023-07-31T02:29:50;100359.34;;;19.20;63.81
25944;BME280;13742;49.306;8.636;2023-07-31T02:30:51;100355.27;;;19.21;63.82
25944;BME280;13742;49.306;8.636;2023-07-31T02:31:50;100356.29;;;19.19;64.01
25944;BME280;13742;49.306;8.636;2023-07-31T02:32:50;100357.34;;;19.15;63.88
25944;BME280;13742;49.306;8.636;2023-07-31T02:33:50;100357.89;;;19.16;64.07
25944;BME280;13742;49.306;8.636;2023-07-31T02:34:50;100357.00;;;19.08;64.35
25944;BME280;13742;49.306;8.636;2023-07-31T02:35:50;100354.73;;;19.11;64.18
25944;BME280;13742;49.306;8.636;2023-07-31T02:36:50;100353.43;;;19.12;64.44
25944;BME280;13742;49.306;8.636;2023-07-31T02:37:50;100352.77;;;19.12;64.39
25944;BME280;13742;49.306;8.636;2023-07-31T02:38:50;100355.02;;;19.14;64.40
25944;BME280;13742;49.306;8.636;2023-07-31T02:39:50;100355.16;;;19.14;64.30
25944;BME280;13742;49.306;8.636;2023-07-31T02:40:50;100354.77;;;19.15;64.31
25944;BME280;13742;49.306;8.636;2023-07-31T02:41:50;100350.42;;;19.15;64.53
25944;BME280;13742;49.306;8.636;2023-07-31T02:42:50;100353.94;;;19.15;64.63
25944;BME280;13742;49.306;8.636;2023-07-31T02:43:50;100354.94;;;19.15;64.69
25944;BME280;13742;49.306;8.636;2023-07-31T02:44:55;100349.54;;;19.15;64.51
25944;BME280;13742;49.306;8.636;2023-07-31T02:45:51;100350.77;;;19.14;64.70
25944;BME280;13742;49.306;8.636;2023-07-31T02:46:50;100353.91;;;19.10;64.71
25944;BME280;13742;49.306;8.636;2023-07-31T02:47:50;100349.70;;;19.07;64.55
25944;BME280;13742;49.306;8.636;2023-07-31T02:48:51;100353.57;;;19.09;64.66
25944;BME280;13742;49.306;8.636;2023-07-31T02:49:50;100349.73;;;19.10;64.64
25944;BME280;13742;49.306;8.636;2023-07-31T02:50:50;100350.38;;;19.11;64.79
25944;BME280;13742;49.306;8.636;2023-07-31T02:51:50;100350.79;;;19.09;65.22
25944;BME280;13742;49.306;8.636;2023-07-31T02:52:50;100351.58;;;19.08;65.06
25944;BME280;13742;49.306;8.636;2023-07-31T02:53:50;100348.54;;;19.05;65.11
25944;BME280;13742;49.306;8.636;2023-07-31T02:54:50;100350.72;;;19.06;64.81
25944;BME280;13742;49.306;8.636;2023-07-31T02:55:50;100349.19;;;19.07;64.98
25944;BME280;13742;49.306;8.636;2023-07-31T02:56:50;100345.67;;;19.07;65.26
25944;BME280;13742;49.306;8.636;2023-07-31T02:57:52;100349.36;;;19.07;65.05
25944;BME280;13742;49.306;8.636;2023-07-31T02:58:50;100349.19;;;19.07;65.25
25944;BME280;13742;49.306;8.636;2023-07-31T02:59:50;100349.13;;;19.08;65.21
25944;BME280;13742;49.306;8.636;2023-07-31T03:00:50;100348.02;;;19.07;65.65
25944;BME280;13742;49.306;8.636;2023-07-31T03:01:50;100354.31;;;19.07;65.54
25944;BME280;13742;49.306;8.636;2023-07-31T03:02:50;100354.78;;;19.07;65.29
25944;BME280;13742;49.306;8.636;2023-07-31T03:03:50;100358.14;;;19.05;65.24
25944;BME280;13742;49.306;8.636;2023-07-31T03:04:50;100360.19;;;19.06;65.17
25944;BME280;13742;49.306;8.636;2023-07-31T03:05:50;100356.41;;;19.05;65.12
25944;BME280;13742;49.306;8.636;2023-07-31T03:06:50;100359.86;;;19.06;65.39
25944;BME280;13742;49.306;8.636;2023-07-31T03:07:50;100356.28;;;19.06;65.38
25944;BME280;13742;49.306;8.636;2023-07-31T03:08:50;100355.84;;;19.06;65.48
25944;BME280;13742;49.306;8.636;2023-07-31T03:09:51;100351.11;;;19.05;65.24
25944;BME280;13742;49.306;8.636;2023-07-31T03:10:50;100346.30;;;19.02;65.34
25944;BME280;13742;49.306;8.636;2023-07-31T03:11:50;100344.01;;;19.01;65.40
25944;BME280;13742;49.306;8.636;2023-07-31T03:12:50;100346.28;;;19.02;65.43
25944;BME280;13742;49.306;8.636;2023-07-31T03:13:50;100344.72;;;19.02;65.52
25944;BME280;13742;49.306;8.636;2023-07-31T03:14:50;100342.27;;;19.02;65.58
25944;BME280;13742;49.306;8.636;2023-07-31T03:15:50;100345.39;;;19.02;65.68
25944;BME280;13742;49.306;8.636;2023-07-31T03:16:50;100343.78;;;19.02;65.96
25944;BME280;13742;49.306;8.636;2023-07-31T03:17:50;100347.13;;;19.02;65.71
25944;BME280;13742;49.306;8.636;2023-07-31T03:18:50;100351.03;;;19.01;65.76
25944;BME280;13742;49.306;8.636;2023-07-31T03:19:50;100349.86;;;19.01;65.58
25944;BME280;13742;49.306;8.636;2023-07-31T03:20:50;100352.56;;;19.00;65.59
25944;BME280;13742;49.306;8.636;2023-07-31T03:21:50;100355.08;;;18.98;65.65
25944;BME280;13742;49.306;8.636;2023-07-31T03:22:50;100349.58;;;18.97;65.43
25944;BME280;13742;49.306;8.636;2023-07-31T03:23:50;100352.53;;;18.97;65.55
25944;BME280;13742;49.306;8.636;2023-07-31T03:24:50;100350.92;;;18.97;65.55
25944;BME280;13742;49.306;8.636;2023-07-31T03:26:50;100355.00;;;18.96;65.49
25944;BME280;13742;49.306;8.636;2023-07-31T03:27:50;100355.06;;;18.96;65.36
25944;BME280;13742;49.306;8.636;2023-07-31T03:28:50;100356.13;;;18.95;65.41
25944;BME280;13742;49.306;8.636;2023-07-31T03:29:51;100356.05;;;18.95;65.91
25944;BME280;13742;49.306;8.636;2023-07-31T03:30:51;100354.81;;;18.92;65.85
25944;BME280;13742;49.306;8.636;2023-07-31T03:31:51;100357.33;;;18.92;65.64
25944;BME280;13742;49.306;8.636;2023-07-31T03:32:50;100353.43;;;18.91;65.57
25944;BME280;13742;49.306;8.636;2023-07-31T03:33:50;100349.37;;;18.90;65.75
25944;BME280;13742;49.306;8.636;2023-07-31T03:34:50;100349.98;;;18.90;65.72
25944;BME280;13742;49.306;8.636;2023-07-31T03:35:51;100350.50;;;18.89;65.56
25944;BME280;13742;49.306;8.636;2023-07-31T03:36:50;100349.27;;;18.90;65.78
25944;BME280;13742;49.306;8.636;2023-07-31T03:37:50;100347.59;;;18.89;66.61
25944;BME280;13742;49.306;8.636;2023-07-31T03:38:51;100352.39;;;18.88;66.05
25944;BME280;13742;49.306;8.636;2023-07-31T03:39:50;100348.95;;;18.86;66.27
25944;BME280;13742;49.306;8.636;2023-07-31T03:40:50;100347.58;;;18.85;66.18
25944;BME280;13742;49.306;8.636;2023-07-31T03:41:50;100346.13;;;18.85;66.53
25944;BME280;13742;49.306;8.636;2023-07-31T03:42:50;100348.53;;;18.85;66.34
25944;BME280;13742;49.306;8.636;2023-07-31T03:43:53;100347.20;;;18.84;66.33
25944;BME280;13742;49.306;8.636;2023-07-31T03:44:50;100343.47;;;18.84;66.02
25944;BME280;13742;49.306;8.636;2023-07-31T03:45:50;100341.23;;;18.84;66.18
25944;BME280;13742;49.306;8.636;2023-07-31T03:46:50;100344.20;;;18.83;66.20
25944;BME280;13742;49.306;8.636;2023-07-31T03:47:51;100339.18;;;18.83;66.15
25944;BME280;13742;49.306;8.636;2023-07-31T03:48:50;100343.03;;;18.83;66.83
25944;BME280;13742;49.306;8.636;2023-07-31T03:49:50;100344.70;;;18.82;66.49
25944;BME280;13742;49.306;8.636;2023-07-31T03:50:50;100340.53;;;18.81;66.94
25944;BME280;13742;49.306;8.636;2023-07-31T03:51:50;100341.66;;;18.80;66.63
25944;BME280;13742;49.306;8.636;2023-07-31T03:52:50;100340.38;;;18.79;66.63
25944;BME280;13742;49.306;8.636;2023-07-31T03:53:50;100339.80;;;18.78;66.93
25944;BME280;13742;49.306;8.636;2023-07-31T03:54:50;100340.40;;;18.78;66.71
25944;BME280;13742;49.306;8.636;2023-07-31T03:55:50;100337.22;;;18.78;67.16
25944;BME280;13742;49.306;8.636;2023-07-31T03:56:50;100341.91;;;18.78;66.89
25944;BME280;13742;49.306;8.636;2023-07-31T03:57:50;100338.17;;;18.77;66.75
25944;BME280;13742;49.306;8.636;2023-07-31T03:58:50;100337.67;;;18.77;66.92
25944;BME280;13742;49.306;8.636;2023-07-31T03:59:50;100336.91;;;18.75;66.86
25944;BME280;13742;49.306;8.636;2023-07-31T04:00:50;100339.38;;;18.74;66.81
25944;BME280;13742;49.306;8.636;2023-07-31T04:01:50;100338.34;;;18.71;66.85
25944;BME280;13742;49.306;8.636;2023-07-31T04:02:50;100343.98;;;18.70;66.84
25944;BME280;13742;49.306;8.636;2023-07-31T04:03:50;100345.72;;;18.70;66.81
25944;BME280;13742;49.306;8.636;2023-07-31T04:04:50;100342.33;;;18.69;67.28
25944;BME280;13742;49.306;8.636;2023-07-31T04:05:50;100343.66;;;18.69;67.06
25944;BME280;13742;49.306;8.636;2023-07-31T04:06:50;100342.14;;;18.70;67.29
25944;BME280;13742;49.306;8.636;2023-07-31T04:07:50;100341.84;;;18.67;67.12
25944;BME280;13742;49.306;8.636;2023-07-31T04:08:50;100339.84;;;18.66;67.18
25944;BME280;13742;49.306;8.636;2023-07-31T04:09:50;100347.47;;;18.68;67.28
25944;BME280;13742;49.306;8.636;2023-07-31T04:10:50;100349.25;;;18.68;67.48
25944;BME280;13742;49.306;8.636;2023-07-31T04:11:50;100353.09;;;18.63;67.15
25944;BME280;13742;49.306;8.636;2023-07-31T04:12:50;100348.86;;;18.62;67.32
25944;BME280;13742;49.306;8.636;2023-07-31T04:13:50;100352.93;;;18.61;67.01
25944;BME280;13742;49.306;8.636;2023-07-31T04:14:50;100347.88;;;18.60;67.02
25944;BME280;13742;49.306;8.636;2023-07-31T04:15:51;100351.48;;;18.62;66.93
25944;BME280;13742;49.306;8.636;2023-07-31T04:16:50;100343.07;;;18.61;66.83
25944;BME280;13742;49.306;8.636;2023-07-31T04:17:50;100343.22;;;18.63;67.29
25944;BME280;13742;49.306;8.636;2023-07-31T04:18:50;100344.94;;;18.63;67.08
25944;BME280;13742;49.306;8.636;2023-07-31T04:19:50;100344.77;;;18.63;66.82
25944;BME280;13742;49.306;8.636;2023-07-31T04:20:50;100344.17;;;18.62;66.94
25944;BME280;13742;49.306;8.636;2023-07-31T04:21:50;100348.19;;;18.62;66.96
25944;BME280;13742;49.306;8.636;2023-07-31T04:22:50;100347.47;;;18.62;66.97
25944;BME280;13742;49.306;8.636;2023-07-31T04:23:50;100343.95;;;18.62;66.96
25944;BME280;13742;49.306;8.636;2023-07-31T04:24:50;100346.50;;;18.63;66.82
25944;BME280;13742;49.306;8.636;2023-07-31T04:25:50;100345.79;;;18.62;66.57
25944;BME280;13742;49.306;8.636;2023-07-31T04:26:51;100345.70;;;18.60;66.71
25944;BME280;13742;49.306;8.636;2023-07-31T04:27:50;100347.37;;;18.60;67.00
25944;BME280;13742;49.306;8.636;2023-07-31T04:28:50;100347.32;;;18.59;66.70
25944;BME280;13742;49.306;8.636;2023-07-31T04:29:51;100344.19;;;18.60;66.61
25944;BME280;13742;49.306;8.636;2023-07-31T04:30:50;100346.47;;;18.61;66.76
25944;BME280;13742;49.306;8.636;2023-07-31T04:31:50;100348.13;;;18.62;66.73
25944;BME280;13742;49.306;8.636;2023-07-31T04:32:50;100346.80;;;18.62;66.95
25944;BME280;13742;49.306;8.636;2023-07-31T04:33:50;100347.63;;;18.62;66.62
25944;BME280;13742;49.306;8.636;2023-07-31T04:34:50;100347.86;;;18.57;66.64
25944;BME280;13742;49.306;8.636;2023-07-31T04:35:52;100345.98;;;18.59;66.74
25944;BME280;13742;49.306;8.636;2023-07-31T04:36:50;100343.08;;;18.60;66.91
25944;BME280;13742;49.306;8.636;2023-07-31T04:37:50;100342.02;;;18.60;66.68
25944;BME280;13742;49.306;8.636;2023-07-31T04:38:50;100338.22;;;18.61;66.68
25944;BME280;13742;49.306;8.636;2023-07-31T04:39:50;100337.23;;;18.63;66.78
25944;BME280;13742;49.306;8.636;2023-07-31T04:40:50;100336.41;;;18.63;66.76
25944;BME280;13742;49.306;8.636;2023-07-31T04:41:50;100333.51;;;18.64;66.71
25944;BME280;13742;49.306;8.636;2023-07-31T04:42:50;100335.25;;;18.62;66.58
25944;BME280;13742;49.306;8.636;2023-07-31T04:43:50;100333.56;;;18.64;66.75
25944;BME280;13742;49.306;8.636;2023-07-31T04:44:50;100335.41;;;18.62;66.55
25944;BME280;13742;49.306;8.636;2023-07-31T04:45:50;100333.25;;;18.60;66.56
25944;BME280;13742;49.306;8.636;2023-07-31T04:46:50;100330.92;;;18.59;66.40
25944;BME280;13742;49.306;8.636;2023-07-31T04:47:50;100327.95;;;18.56;66.63
25944;BME280;13742;49.306;8.636;2023-07-31T04:48:50;100330.67;;;18.57;66.52
25944;BME280;13742;49.306;8.636;2023-07-31T04:49:50;100326.62;;;18.57;66.31
25944;BME280;13742;49.306;8.636;2023-07-31T04:50:50;100332.88;;;18.54;66.30
25944;BME280;13742;49.306;8.636;2023-07-31T04:51:50;100329.72;;;18.56;66.34
25944;BME280;13742;49.306;8.636;2023-07-31T04:52:50;100331.80;;;18.56;66.43
25944;BME280;13742;49.306;8.636;2023-07-31T04:53:50;100332.16;;;18.58;66.64
25944;BME280;13742;49.306;8.636;2023-07-31T04:54:50;100334.23;;;18.58;66.90
25944;BME280;13742;49.306;8.636;2023-07-31T04:55:50;100337.33;;;18.60;66.95
25944;BME280;13742;49.306;8.636;2023-07-31T04:56:50;100335.20;;;18.61;66.77
25944;BME280;13742;49.306;8.636;2023-07-31T04:57:50;100333.90;;;18.64;66.89
25944;BME280;13742;49.306;8.636;2023-07-31T04:58:50;100333.21;;;18.65;66.85
25944;BME280;13742;49.306;8.636;2023-07-31T04:59:50;100330.86;;;18.67;67.31
25944;BME280;13742;49.306;8.636;2023-07-31T05:00:50;100332.13;;;18.69;67.10
25944;BME280;13742;49.306;8.636;2023-07-31T05:01:50;100329.48;;;18.71;67.27
25944;BME280;13742;49.306;8.636;2023-07-31T05:02:50;100328.06;;;18.73;67.41
25944;BME280;13742;49.306;8.636;2023-07-31T05:03:50;100331.36;;;18.72;66.63
25944;BME280;13742;49.306;8.636;2023-07-31T05:04:50;100333.08;;;18.74;66.66
25944;BME280;13742;49.306;8.636;2023-07-31T05:05:50;100332.19;;;18.74;66.55
25944;BME280;13742;49.306;8.636;2023-07-31T05:06:50;100331.50;;;18.75;66.88
25944;BME280;13742;49.306;8.636;2023-07-31T05:07:50;100334.10;;;18.78;66.93
25944;BME280;13742;49.306;8.636;2023-07-31T05:08:50;100336.08;;;18.81;66.80
25944;BME280;13742;49.306;8.636;2023-07-31T05:09:50;100333.59;;;18.77;66.53
25944;BME280;13742;49.306;8.636;2023-07-31T05:10:50;100335.59;;;18.79;66.92
25944;BME280;13742;49.306;8.636;2023-07-31T05:11:50;100338.86;;;18.82;66.84
25944;BME280;13742;49.306;8.636;2023-07-31T05:12:50;100341.30;;;18.83;66.87
25944;BME280;13742;49.306;8.636;2023-07-31T05:13:50;100338.05;;;18.84;66.86
25944;BME280;13742;49.306;8.636;2023-07-31T05:14:50;100337.47;;;18.85;66.92
25944;BME280;13742;49.306;8.636;2023-07-31T05:15:50;100334.05;;;18.87;66.88
25944;BME280;13742;49.306;8.636;2023-07-31T05:16:50;100333.93;;;18.89;67.03
25944;BME280;13742;49.306;8.636;2023-07-31T05:17:50;100331.27;;;18.87;66.65
25944;BME280;13742;49.306;8.636;2023-07-31T05:18:50;100331.38;;;18.87;66.78
25944;BME280;13742;49.306;8.636;2023-07-31T05:19:50;100332.43;;;18.89;66.89
25944;BME280;13742;49.306;8.636;2023-07-31T05:20:50;100331.91;;;18.91;66.92
25944;BME280;13742;49.306;8.636;2023-07-31T05:21:50;100328.78;;;18.90;66.71
25944;BME280;13742;49.306;8.636;2023-07-31T05:22:50;100328.83;;;18.91;66.66
25944;BME280;13742;49.306;8.636;2023-07-31T05:23:50;100330.01;;;18.91;66.67
25944;BME280;13742;49.306;8.636;2023-07-31T05:24:50;100331.81;;;18.89;66.55
25944;BME280;13742;49.306;8.636;2023-07-31T05:25:50;100326.91;;;18.89;66.58